createdAt,value
2023-02-28T00:00:11.480Z,4.00
2023-02-28T00:01:11.465Z,4.00
2023-02-28T00:02:11.471Z,3.99
2023-02-28T00:03:11.457Z,3.99
2023-02-28T00:04:11.460Z,4.10
2023-02-28T00:05:11.431Z,4.00
2023-02-28T00:06:11.419Z,3.98
2023-02-28T00:07:11.402Z,4.00
2023-02-28T00:08:11.397Z,3.96
2023-02-28T00:09:11.411Z,3.92
2023-02-28T00:10:11.381Z,3.90
2023-02-28T00:11:11.374Z,3.98
2023-02-28T00:12:11.372Z,3.94
2023-02-28T00:13:11.346Z,3.94
2023-02-28T00:14:11.362Z,3.90
2023-02-28T00:15:11.332Z,3.88
2023-02-28T00:16:11.424Z,3.87
2023-02-28T00:17:11.309Z,3.84
2023-02-28T00:18:11.301Z,3.96
2023-02-28T00:19:11.278Z,3.87
2023-02-28T00:20:11.298Z,3.87
2023-02-28T00:21:11.262Z,3.87
2023-02-28T00:22:11.246Z,3.92
2023-02-28T00:23:11.238Z,3.80
2023-02-28T00:24:11.228Z,3.74
2023-02-28T00:25:11.251Z,3.84
2023-02-28T00:26:11.218Z,3.82
2023-02-28T00:27:11.193Z,3.85
2023-02-28T00:28:11.212Z,3.76
2023-02-28T00:29:11.187Z,3.82
2023-02-28T00:30:11.181Z,3.85
2023-02-28T00:31:11.221Z,3.85
2023-02-28T00:32:11.154Z,3.85
2023-02-28T00:33:11.137Z,3.82
2023-02-28T00:34:11.125Z,3.84
2023-02-28T00:35:11.124Z,3.82
2023-02-28T00:36:11.117Z,3.73
2023-02-28T00:37:11.079Z,3.70
2023-02-28T00:38:11.073Z,3.70
2023-02-28T00:39:11.054Z,3.74
2023-02-28T00:40:11.044Z,3.64
2023-02-28T00:41:11.058Z,3.72
2023-02-28T00:42:11.040Z,3.66
2023-02-28T00:43:11.016Z,3.63
2023-02-28T00:44:11.028Z,3.66
2023-02-28T00:45:11.006Z,3.63
2023-02-28T00:46:11.064Z,3.72
2023-02-28T00:47:10.970Z,3.66
2023-02-28T00:48:10.962Z,3.60
2023-02-28T00:49:10.946Z,3.66
2023-02-28T00:50:10.947Z,3.66
2023-02-28T00:51:10.955Z,3.63
2023-02-28T00:52:10.917Z,3.76
2023-02-28T00:53:10.906Z,3.63
2023-02-28T00:54:10.905Z,3.64
2023-02-28T00:55:10.884Z,3.62
2023-02-28T00:56:10.907Z,3.62
2023-02-28T00:57:10.863Z,3.63
2023-02-28T00:58:10.856Z,3.60
2023-02-28T00:59:10.840Z,3.60
2023-02-28T01:00:10.863Z,3.67
2023-02-28T01:01:10.869Z,3.64
2023-02-28T01:02:10.830Z,3.46
2023-02-28T01:03:10.821Z,3.52
2023-02-28T01:04:10.836Z,3.48
2023-02-28T01:05:10.769Z,3.49
2023-02-28T01:06:10.764Z,3.48
2023-02-28T01:07:10.754Z,3.54
2023-02-28T01:08:10.773Z,3.52
2023-02-28T01:09:10.733Z,3.52
2023-02-28T01:10:10.753Z,3.45
2023-02-28T01:11:10.743Z,3.48
2023-02-28T01:12:10.705Z,3.49
2023-02-28T01:13:10.711Z,3.46
2023-02-28T01:14:10.682Z,3.49
2023-02-28T01:15:10.692Z,3.51
2023-02-28T01:16:10.782Z,3.46
2023-02-28T01:17:10.651Z,3.46
2023-02-28T01:18:10.651Z,3.49
2023-02-28T01:19:10.631Z,3.42
2023-02-28T01:20:10.647Z,3.48
2023-02-28T01:21:10.605Z,3.44
2023-02-28T01:22:10.600Z,3.51
2023-02-28T01:23:10.587Z,3.45
2023-02-28T01:24:10.574Z,3.37
2023-02-28T01:25:10.626Z,3.35
2023-02-28T01:26:10.562Z,3.44
2023-02-28T01:27:10.539Z,3.44
2023-02-28T01:28:10.530Z,3.41
2023-02-28T01:29:10.526Z,3.51
2023-02-28T01:30:10.537Z,3.41
2023-02-28T01:31:10.586Z,3.37
2023-02-28T01:32:10.589Z,3.44
2023-02-28T01:33:10.487Z,3.46
2023-02-28T01:34:10.466Z,3.49
2023-02-28T01:35:10.478Z,3.45
2023-02-28T01:36:10.564Z,3.41
2023-02-28T01:37:10.464Z,3.36
2023-02-28T01:38:21.763Z,3.33
2023-02-28T01:39:11.409Z,3.44
2023-02-28T01:40:10.400Z,3.37
2023-02-28T01:41:10.410Z,3.36
2023-02-28T01:42:10.375Z,3.33
2023-02-28T01:43:10.366Z,3.32
2023-02-28T01:44:10.360Z,3.37
2023-02-28T01:45:10.363Z,3.35
2023-02-28T01:46:10.380Z,3.36
2023-02-28T01:47:10.345Z,3.27
2023-02-28T01:48:10.339Z,3.25
2023-02-28T01:49:10.299Z,3.33
2023-02-28T01:50:10.312Z,3.22
2023-02-28T01:51:10.285Z,3.27
2023-02-28T01:52:10.263Z,3.26
2023-02-28T01:53:10.280Z,3.22
2023-02-28T01:54:10.277Z,3.20
2023-02-28T01:55:10.240Z,3.27
2023-02-28T01:56:10.223Z,3.25
2023-02-28T01:57:10.212Z,3.22
2023-02-28T01:58:10.208Z,3.20
2023-02-28T01:59:10.216Z,3.14
2023-02-28T02:00:10.199Z,3.22
2023-02-28T02:01:10.171Z,3.18
2023-02-28T02:02:10.256Z,3.20
2023-02-28T02:03:10.313Z,3.25
2023-02-28T02:04:10.180Z,3.17
2023-02-28T02:05:10.152Z,3.12
2023-02-28T02:06:10.114Z,3.12
2023-02-28T02:07:10.126Z,3.14
2023-02-28T02:08:10.089Z,3.14
2023-02-28T02:09:10.086Z,3.08
2023-02-28T02:10:10.087Z,3.08
2023-02-28T02:11:10.081Z,3.09
2023-02-28T02:12:10.052Z,3.00
2023-02-28T02:13:10.044Z,3.00
2023-02-28T02:14:10.028Z,2.96
2023-02-28T02:15:10.044Z,3.08
2023-02-28T02:16:10.050Z,2.96
2023-02-28T02:17:10.009Z,3.00
2023-02-28T02:18:09.982Z,3.00
2023-02-28T02:19:09.976Z,2.93
2023-02-28T02:20:10.013Z,2.96
2023-02-28T02:21:09.960Z,2.91
2023-02-28T02:22:09.946Z,2.91
2023-02-28T02:23:09.946Z,2.97
2023-02-28T02:24:09.922Z,2.81
2023-02-28T02:25:09.909Z,2.97
2023-02-28T02:26:09.924Z,2.79
2023-02-28T02:27:09.895Z,2.81
2023-02-28T02:28:09.904Z,2.89
2023-02-28T02:29:09.870Z,2.86
2023-02-28T02:30:09.864Z,2.81
2023-02-28T02:31:09.922Z,2.89
2023-02-28T02:32:09.893Z,2.91
2023-02-28T02:33:09.850Z,2.79
2023-02-28T02:34:09.815Z,2.72
2023-02-28T02:35:09.803Z,2.75
2023-02-28T02:36:09.834Z,2.79
2023-02-28T02:37:09.790Z,2.76
2023-02-28T02:38:09.806Z,2.81
2023-02-28T02:39:09.764Z,2.72
2023-02-28T02:40:09.750Z,2.78
2023-02-28T02:41:09.754Z,2.73
2023-02-28T02:42:09.725Z,2.69
2023-02-28T02:43:09.735Z,2.71
2023-02-28T02:44:09.700Z,2.68
2023-02-28T02:45:09.695Z,2.68
2023-02-28T02:46:09.709Z,2.69
2023-02-28T02:47:09.673Z,2.63
2023-02-28T02:48:09.660Z,2.55
2023-02-28T02:49:09.650Z,2.71
2023-02-28T02:50:09.635Z,2.60
2023-02-28T02:51:09.654Z,2.65
2023-02-28T02:52:09.641Z,2.60
2023-02-28T02:53:09.612Z,2.61
2023-02-28T02:54:09.601Z,2.61
2023-02-28T02:55:09.582Z,2.61
2023-02-28T02:56:09.595Z,2.50
2023-02-28T02:57:09.585Z,2.45
2023-02-28T02:58:09.551Z,2.50
2023-02-28T02:59:09.547Z,2.58
2023-02-28T03:00:09.534Z,2.61
2023-02-28T03:01:09.585Z,2.48
2023-02-28T03:02:09.516Z,2.55
2023-02-28T03:03:09.496Z,2.50
2023-02-28T03:04:09.526Z,2.40
2023-02-28T03:05:09.484Z,2.42
2023-02-28T03:06:09.490Z,2.53
2023-02-28T03:07:09.458Z,2.43
2023-02-28T03:08:09.467Z,2.43
2023-02-28T03:09:09.447Z,2.45
2023-02-28T03:10:09.423Z,2.51
2023-02-28T03:11:09.444Z,2.42
2023-02-28T03:12:09.400Z,2.47
2023-02-28T03:13:09.394Z,2.37
2023-02-28T03:14:09.394Z,2.39
2023-02-28T03:15:09.371Z,2.40
2023-02-28T03:16:09.398Z,2.43
2023-02-28T03:17:09.355Z,2.36
2023-02-28T03:18:09.340Z,2.32
2023-02-28T03:19:09.334Z,2.32
2023-02-28T03:20:09.320Z,2.35
2023-02-28T03:21:09.316Z,2.32
2023-02-28T03:22:09.324Z,2.25
2023-02-28T03:23:09.289Z,2.32
2023-02-28T03:24:09.295Z,2.30
2023-02-28T03:25:09.267Z,2.29
2023-02-28T03:26:09.282Z,2.25
2023-02-28T03:27:09.246Z,2.29
2023-02-28T03:28:09.235Z,2.21
2023-02-28T03:29:09.227Z,2.28
2023-02-28T03:30:09.209Z,2.24
2023-02-28T03:31:09.229Z,2.29
2023-02-28T03:32:09.310Z,2.19
2023-02-28T03:33:09.185Z,2.19
2023-02-28T03:34:09.169Z,2.25
2023-02-28T03:35:09.165Z,2.25
2023-02-28T03:36:09.152Z,2.21
2023-02-28T03:37:09.221Z,2.22
2023-02-28T03:38:09.122Z,2.22
2023-02-28T03:39:09.120Z,2.12
2023-02-28T03:40:09.129Z,2.15
2023-02-28T03:41:09.101Z,2.18
2023-02-28T03:42:09.108Z,2.07
2023-02-28T03:43:09.072Z,2.17
2023-02-28T03:44:09.059Z,2.18
2023-02-28T03:45:09.054Z,2.11
2023-02-28T03:46:09.132Z,2.07
2023-02-28T03:47:09.057Z,2.07
2023-02-28T03:48:09.024Z,2.04
2023-02-28T03:49:09.039Z,2.14
2023-02-28T03:50:09.008Z,2.14
2023-02-28T03:51:08.992Z,2.07
2023-02-28T03:52:08.981Z,2.06
2023-02-28T03:53:08.971Z,2.07
2023-02-28T03:54:08.969Z,2.03
2023-02-28T03:55:08.951Z,2.04
2023-02-28T03:56:08.959Z,2.11
2023-02-28T03:57:08.927Z,2.07
2023-02-28T03:58:08.932Z,2.03
2023-02-28T03:59:08.942Z,1.97
2023-02-28T04:00:08.895Z,1.99
2023-02-28T04:01:08.943Z,1.99
2023-02-28T04:02:08.930Z,2.04
2023-02-28T04:03:08.860Z,1.99
2023-02-28T04:04:08.883Z,1.95
2023-02-28T04:05:08.839Z,1.92
2023-02-28T04:06:08.821Z,2.00
2023-02-28T04:07:08.824Z,1.92
2023-02-28T04:08:08.804Z,1.85
2023-02-28T04:09:08.821Z,1.99
2023-02-28T04:10:08.783Z,1.93
2023-02-28T04:11:08.769Z,1.92
2023-02-28T04:12:08.778Z,1.80
2023-02-28T04:13:08.752Z,1.82
2023-02-28T04:14:08.758Z,1.87
2023-02-28T04:15:08.735Z,1.84
2023-02-28T04:16:08.760Z,1.81
2023-02-28T04:17:08.704Z,1.87
2023-02-28T04:18:08.703Z,1.84
2023-02-28T04:19:08.738Z,1.87
2023-02-28T04:20:08.673Z,1.81
2023-02-28T04:21:08.671Z,1.73
2023-02-28T04:22:08.650Z,1.71
2023-02-28T04:23:08.640Z,1.69
2023-02-28T04:24:08.657Z,1.64
2023-02-28T04:25:08.617Z,1.75
2023-02-28T04:26:08.613Z,1.77
2023-02-28T04:27:08.601Z,1.66
2023-02-28T04:28:08.609Z,1.71
2023-02-28T04:29:08.603Z,1.77
2023-02-28T04:30:08.564Z,1.67
2023-02-28T04:31:08.562Z,1.60
2023-02-28T04:32:08.708Z,1.64
2023-02-28T04:33:08.563Z,1.59
2023-02-28T04:34:08.523Z,1.63
2023-02-28T04:35:09.918Z,1.57
2023-02-28T04:36:08.503Z,1.62
2023-02-28T04:37:13.651Z,1.60
2023-02-28T04:38:08.510Z,1.63
2023-02-28T04:39:08.500Z,1.55
2023-02-28T04:40:08.478Z,1.48
2023-02-28T04:41:08.456Z,1.57
2023-02-28T04:42:08.451Z,1.55
2023-02-28T04:43:08.433Z,1.48
2023-02-28T04:44:08.482Z,1.39
2023-02-28T04:45:08.409Z,1.55
2023-02-28T04:46:08.415Z,1.42
2023-02-28T04:47:08.387Z,1.45
2023-02-28T04:48:08.366Z,1.45
2023-02-28T04:49:08.362Z,1.42
2023-02-28T04:50:08.364Z,1.42
2023-02-28T04:51:08.337Z,1.48
2023-02-28T04:52:08.363Z,1.44
2023-02-28T04:53:08.326Z,1.44
2023-02-28T04:54:08.302Z,1.44
2023-02-28T04:55:08.293Z,1.39
2023-02-28T04:56:08.286Z,1.38
2023-02-28T04:57:08.297Z,1.36
2023-02-28T04:58:10.027Z,1.31
2023-02-28T04:59:08.253Z,1.31
2023-02-28T05:00:08.264Z,1.31
2023-02-28T05:01:08.226Z,1.30
2023-02-28T05:02:08.414Z,1.31
2023-02-28T05:03:08.210Z,1.36
2023-02-28T05:04:08.197Z,1.30
2023-02-28T05:05:08.257Z,1.38
2023-02-28T05:06:08.198Z,1.48
2023-02-28T05:07:08.167Z,1.56
2023-02-28T05:08:08.154Z,1.55
2023-02-28T05:09:08.153Z,1.62
2023-02-28T05:10:08.134Z,1.67
2023-02-28T05:11:08.142Z,1.74
2023-02-28T05:12:08.134Z,1.80
2023-02-28T05:13:08.100Z,1.82
2023-02-28T05:14:08.081Z,1.91
2023-02-28T05:15:08.155Z,2.01
2023-02-28T05:16:08.174Z,2.01
2023-02-28T05:17:08.087Z,2.03
2023-02-28T05:18:08.044Z,2.18
2023-02-28T05:19:08.107Z,2.06
2023-02-28T05:20:15.348Z,2.15
2023-02-28T05:21:08.035Z,2.14
2023-02-28T05:22:08.003Z,2.17
2023-02-28T05:23:07.993Z,2.12
2023-02-28T05:24:07.974Z,2.18
2023-02-28T05:25:07.965Z,2.17
2023-02-28T05:26:07.977Z,2.14
2023-02-28T05:27:07.971Z,2.18
2023-02-28T05:28:07.932Z,2.15
2023-02-28T05:29:07.925Z,2.17
2023-02-28T05:30:07.914Z,2.15
2023-02-28T05:31:08.070Z,2.14
2023-02-28T05:32:08.029Z,2.07
2023-02-28T05:33:07.885Z,2.12
2023-02-28T05:34:07.893Z,2.19
2023-02-28T05:35:07.864Z,2.14
2023-02-28T05:36:07.848Z,2.06
2023-02-28T05:37:07.868Z,2.04
2023-02-28T05:38:07.828Z,2.06
2023-02-28T05:39:07.816Z,2.15
2023-02-28T05:40:07.803Z,2.04
2023-02-28T05:41:07.799Z,2.10
2023-02-28T05:42:07.804Z,2.00
2023-02-28T05:43:07.774Z,1.95
2023-02-28T05:44:07.762Z,1.97
2023-02-28T05:45:07.757Z,1.95
2023-02-28T05:46:07.866Z,1.92
2023-02-28T05:47:07.755Z,1.92
2023-02-28T05:48:07.736Z,1.92
2023-02-28T05:49:07.808Z,1.92
2023-02-28T05:50:07.707Z,1.84
2023-02-28T05:51:07.698Z,1.80
2023-02-28T05:52:07.677Z,1.77
2023-02-28T05:53:07.687Z,1.82
2023-02-28T05:54:07.655Z,1.84
2023-02-28T05:55:07.643Z,1.77
2023-02-28T05:56:07.657Z,1.74
2023-02-28T05:57:15.536Z,1.71
2023-02-28T05:58:08.645Z,1.81
2023-02-28T05:59:07.603Z,1.63
2023-02-28T06:00:07.589Z,1.62
2023-02-28T06:01:07.587Z,1.57
2023-02-28T06:02:07.599Z,1.64
2023-02-28T06:03:07.582Z,1.59
2023-02-28T06:04:08.009Z,1.57
2023-02-28T06:05:07.540Z,1.64
2023-02-28T06:06:07.534Z,1.57
2023-02-28T06:07:07.544Z,1.56
2023-02-28T06:08:07.517Z,1.57
2023-02-28T06:09:07.489Z,1.53
2023-02-28T06:10:07.492Z,1.49
2023-02-28T06:11:07.478Z,1.49
2023-02-28T06:12:07.498Z,1.45
2023-02-28T06:13:07.459Z,1.46
2023-02-28T06:14:07.450Z,1.42
2023-02-28T06:15:07.452Z,1.39
2023-02-28T06:16:07.428Z,1.28
2023-02-28T06:17:07.422Z,1.34
2023-02-28T06:18:07.407Z,1.35
2023-02-28T06:19:07.405Z,1.30
2023-02-28T06:20:07.423Z,1.23
2023-02-28T06:21:07.373Z,1.24
2023-02-28T06:22:07.362Z,1.27
2023-02-28T06:23:07.358Z,1.28
2023-02-28T06:24:07.364Z,1.23
2023-02-28T06:25:07.353Z,1.27
2023-02-28T06:26:07.323Z,1.21
2023-02-28T06:27:07.300Z,1.23
2023-02-28T06:28:07.302Z,1.20
2023-02-28T06:29:07.289Z,1.20
2023-02-28T06:30:07.321Z,1.21
2023-02-28T06:31:07.338Z,1.21
2023-02-28T06:32:07.355Z,1.27
2023-02-28T06:33:07.236Z,1.21
2023-02-28T06:34:07.258Z,1.35
2023-02-28T06:35:07.224Z,1.31
2023-02-28T06:36:07.244Z,1.31
2023-02-28T06:37:07.215Z,1.41
2023-02-28T06:38:07.196Z,1.49
2023-02-28T06:39:07.179Z,1.56
2023-02-28T06:40:07.228Z,1.71
2023-02-28T06:41:07.164Z,1.63
2023-02-28T06:42:07.159Z,1.74
2023-02-28T06:43:07.142Z,1.75
2023-02-28T06:44:07.123Z,1.82
2023-02-28T06:45:07.150Z,1.92
2023-02-28T06:46:07.130Z,1.89
2023-02-28T06:47:07.122Z,1.97
2023-02-28T06:48:07.085Z,2.01
2023-02-28T06:49:07.070Z,2.07
2023-02-28T06:50:07.085Z,2.00
2023-02-28T06:51:07.048Z,2.01
2023-02-28T06:52:07.081Z,2.15
2023-02-28T06:53:07.032Z,2.10
2023-02-28T06:54:07.028Z,2.18
2023-02-28T06:55:07.024Z,2.06
2023-02-28T06:56:07.000Z,2.04
2023-02-28T06:57:06.986Z,2.11
2023-02-28T06:58:07.014Z,2.06
2023-02-28T06:59:06.984Z,2.15
2023-02-28T07:00:06.983Z,2.03
2023-02-28T07:01:07.027Z,2.14
2023-02-28T07:02:06.932Z,2.11
2023-02-28T07:03:06.926Z,2.07
2023-02-28T07:04:06.935Z,2.07
2023-02-28T07:05:06.917Z,2.06
2023-02-28T07:06:06.885Z,2.10
2023-02-28T07:07:06.875Z,2.07
2023-02-28T07:08:06.892Z,2.03
2023-02-28T07:09:06.855Z,1.93
2023-02-28T07:10:06.868Z,2.00
2023-02-28T07:11:06.826Z,1.95
2023-02-28T07:12:06.824Z,1.99
2023-02-28T07:13:06.807Z,1.87
2023-02-28T07:14:06.796Z,1.97
2023-02-28T07:15:06.814Z,1.91
2023-02-28T07:16:06.815Z,1.89
2023-02-28T07:17:06.771Z,1.92
2023-02-28T07:18:06.755Z,1.84
2023-02-28T07:19:06.760Z,1.82
2023-02-28T07:20:06.754Z,1.85
2023-02-28T07:21:06.716Z,1.87
2023-02-28T07:22:06.711Z,1.87
2023-02-28T07:23:06.700Z,1.80
2023-02-28T07:24:06.736Z,1.69
2023-02-28T07:25:06.681Z,1.80
2023-02-28T07:26:06.668Z,1.77
2023-02-28T07:27:06.706Z,1.73
2023-02-28T07:28:06.646Z,1.74
2023-02-28T07:29:06.652Z,1.69
2023-02-28T07:30:06.621Z,1.67
2023-02-28T07:31:06.693Z,1.59
2023-02-28T07:32:06.663Z,1.63
2023-02-28T07:33:06.585Z,1.67
2023-02-28T07:34:06.596Z,1.60
2023-02-28T07:35:06.565Z,1.64
2023-02-28T07:36:06.582Z,1.67
2023-02-28T07:37:06.560Z,1.69
2023-02-28T07:38:06.537Z,1.62
2023-02-28T07:39:06.544Z,1.59
2023-02-28T07:40:06.550Z,1.63
2023-02-28T07:41:06.516Z,1.63
2023-02-28T07:42:06.495Z,1.64
2023-02-28T07:43:06.494Z,1.48
2023-02-28T07:44:06.505Z,1.52
2023-02-28T07:45:06.471Z,1.66
2023-02-28T07:46:06.495Z,1.49
2023-02-28T07:47:06.442Z,1.62
2023-02-28T07:48:06.446Z,1.56
2023-02-28T07:49:06.449Z,1.52
2023-02-28T07:50:06.432Z,1.46
2023-02-28T07:51:06.401Z,1.42
2023-02-28T07:52:06.395Z,1.52
2023-02-28T07:53:06.412Z,1.41
2023-02-28T07:54:06.375Z,1.53
2023-02-28T07:55:06.358Z,1.42
2023-02-28T07:56:06.413Z,1.48
2023-02-28T07:57:06.335Z,1.41
2023-02-28T07:58:06.336Z,1.44
2023-02-28T07:59:06.344Z,1.46
2023-02-28T08:00:06.318Z,1.36
2023-02-28T08:01:06.298Z,1.56
2023-02-28T08:02:06.421Z,1.52
2023-02-28T08:03:06.272Z,1.55
2023-02-28T08:04:06.289Z,1.52
2023-02-28T08:05:06.290Z,1.55
2023-02-28T08:06:06.246Z,1.53
2023-02-28T08:07:06.234Z,1.55
2023-02-28T08:08:06.239Z,1.62
2023-02-28T08:09:06.249Z,1.57
2023-02-28T08:10:06.228Z,1.60
2023-02-28T08:11:06.194Z,1.63
2023-02-28T08:12:06.205Z,1.66
2023-02-28T08:13:06.167Z,1.53
2023-02-28T08:14:06.176Z,1.64
2023-02-28T08:15:06.153Z,1.56
2023-02-28T08:16:06.210Z,1.66
2023-02-28T08:17:06.121Z,1.63
2023-02-28T08:18:06.122Z,1.63
2023-02-28T08:19:06.117Z,1.60
2023-02-28T08:20:06.111Z,1.66
2023-02-28T08:21:06.086Z,1.62
2023-02-28T08:22:06.085Z,1.60
2023-02-28T08:23:06.060Z,1.67
2023-02-28T08:24:06.076Z,1.71
2023-02-28T08:25:06.037Z,1.77
2023-02-28T08:26:06.035Z,1.75
2023-02-28T08:27:06.012Z,1.74
2023-02-28T08:28:06.064Z,1.77
2023-02-28T08:29:05.995Z,1.74
2023-02-28T08:30:05.989Z,1.74
2023-02-28T08:31:06.017Z,1.78
2023-02-28T08:32:06.111Z,1.75
2023-02-28T08:33:06.073Z,1.82
2023-02-28T08:34:05.938Z,1.80
2023-02-28T08:35:05.935Z,1.85
2023-02-28T08:36:06.131Z,1.84
2023-02-28T08:37:05.905Z,1.93
2023-02-28T08:38:05.931Z,1.81
2023-02-28T08:39:05.893Z,1.95
2023-02-28T08:40:05.887Z,1.92
2023-02-28T08:41:05.864Z,1.82
2023-02-28T08:42:07.847Z,2.00
2023-02-28T08:43:05.864Z,2.01
2023-02-28T08:44:05.880Z,2.00
2023-02-28T08:45:05.821Z,2.07
2023-02-28T08:46:05.934Z,1.93
2023-02-28T08:47:05.798Z,2.06
2023-02-28T08:48:05.804Z,2.04
2023-02-28T08:49:05.801Z,2.04
2023-02-28T08:50:05.762Z,2.14
2023-02-28T08:51:07.548Z,2.10
2023-02-28T08:52:05.750Z,2.14
2023-02-28T08:53:05.771Z,2.15
2023-02-28T08:54:05.739Z,2.12
2023-02-28T08:55:05.702Z,2.21
2023-02-28T08:56:05.700Z,2.17
2023-02-28T08:57:05.687Z,2.22
2023-02-28T08:58:05.702Z,2.15
2023-02-28T08:59:05.701Z,2.15
2023-02-28T09:00:05.681Z,2.21
2023-02-28T09:01:05.649Z,2.22
2023-02-28T09:02:05.639Z,2.22
2023-02-28T09:03:05.620Z,2.29
2023-02-28T09:04:05.613Z,2.21
2023-02-28T09:05:05.619Z,2.21
2023-02-28T09:06:05.589Z,2.24
2023-02-28T09:07:05.578Z,2.28
2023-02-28T09:08:05.568Z,2.32
2023-02-28T09:09:05.556Z,2.37
2023-02-28T09:10:05.565Z,2.30
2023-02-28T09:11:05.546Z,2.28
2023-02-28T09:12:05.529Z,2.40
2023-02-28T09:13:05.518Z,2.39
2023-02-28T09:14:05.532Z,2.48
2023-02-28T09:15:05.521Z,2.50
2023-02-28T09:16:05.518Z,2.48
2023-02-28T09:18:05.465Z,2.48
2023-02-28T09:19:05.453Z,2.40
2023-02-28T09:20:05.551Z,2.36
2023-02-28T09:21:05.428Z,2.50
2023-02-28T09:22:05.419Z,2.55
2023-02-28T09:23:05.407Z,2.53
2023-02-28T09:24:05.422Z,2.57
2023-02-28T09:25:05.416Z,2.60
2023-02-28T09:26:05.382Z,2.55
2023-02-28T09:27:05.837Z,2.60
2023-02-28T09:28:05.353Z,2.63
2023-02-28T09:29:05.377Z,2.71
2023-02-28T09:30:05.338Z,2.65
2023-02-28T09:31:05.366Z,2.69
2023-02-28T09:32:05.405Z,2.63
2023-02-28T09:33:05.318Z,2.63
2023-02-28T09:34:05.370Z,2.69
2023-02-28T09:35:05.282Z,2.71
2023-02-28T09:36:05.313Z,2.68
2023-02-28T09:37:05.358Z,2.63
2023-02-28T09:38:05.269Z,2.78
2023-02-28T09:39:05.234Z,2.76
2023-02-28T09:40:05.225Z,2.93
2023-02-28T09:41:05.216Z,2.86
2023-02-28T09:42:05.229Z,2.84
2023-02-28T09:43:05.220Z,2.93
2023-02-28T09:44:05.194Z,2.82
2023-02-28T09:45:05.168Z,2.82
2023-02-28T09:46:05.225Z,2.81
2023-02-28T09:47:05.178Z,2.91
2023-02-28T09:48:05.173Z,2.99
2023-02-28T09:49:05.124Z,2.94
2023-02-28T09:50:05.121Z,2.90
2023-02-28T09:51:05.107Z,2.99
2023-02-28T09:52:05.120Z,3.00
2023-02-28T09:53:05.087Z,2.96
2023-02-28T09:54:05.079Z,3.00
2023-02-28T09:55:05.059Z,3.05
2023-02-28T09:56:05.052Z,3.05
2023-02-28T09:57:05.068Z,3.02
2023-02-28T09:58:05.070Z,3.12
2023-02-28T09:59:05.057Z,3.12
2023-02-28T10:00:05.017Z,3.14
2023-02-28T10:01:05.091Z,3.12
2023-02-28T10:02:05.015Z,3.15
2023-02-28T10:03:04.992Z,3.20
2023-02-28T10:04:04.997Z,3.23
2023-02-28T10:05:05.042Z,3.18
2023-02-28T10:06:04.953Z,3.25
2023-02-28T10:07:04.968Z,3.27
2023-02-28T10:08:04.924Z,3.26
2023-02-28T10:09:04.916Z,3.27
2023-02-28T10:10:04.905Z,3.26
2023-02-28T10:11:04.887Z,3.22
2023-02-28T10:12:04.904Z,3.26
2023-02-28T10:13:04.868Z,3.33
2023-02-28T10:14:04.880Z,3.32
2023-02-28T10:15:04.847Z,3.33
2023-02-28T10:16:04.921Z,3.36
2023-02-28T10:17:04.841Z,3.41
2023-02-28T10:18:09.361Z,3.32
2023-02-28T10:19:05.809Z,3.45
2023-02-28T10:20:04.854Z,3.44
2023-02-28T10:21:04.781Z,3.36
2023-02-28T10:22:04.796Z,3.42
2023-02-28T10:23:04.760Z,3.46
2023-02-28T10:24:04.750Z,3.45
2023-02-28T10:25:06.757Z,3.45
2023-02-28T10:26:04.733Z,3.45
2023-02-28T10:27:04.736Z,3.49
2023-02-28T10:28:04.704Z,3.52
2023-02-28T10:29:04.700Z,3.63
2023-02-28T10:30:04.687Z,3.66
2023-02-28T10:31:04.743Z,3.62
2023-02-28T10:32:04.753Z,3.66
2023-02-28T10:33:04.708Z,3.66
2023-02-28T10:34:04.664Z,3.69
2023-02-28T10:35:04.633Z,3.66
2023-02-28T10:36:04.754Z,3.76
2023-02-28T10:37:04.613Z,3.73
2023-02-28T10:38:04.595Z,3.87
2023-02-28T10:39:04.617Z,3.81
2023-02-28T10:40:04.576Z,3.78
2023-02-28T10:41:04.596Z,3.87
2023-02-28T10:42:04.566Z,3.92
2023-02-28T10:43:04.556Z,3.96
2023-02-28T10:44:04.550Z,3.94
2023-02-28T10:45:04.537Z,3.91
2023-02-28T10:46:04.572Z,3.94
2023-02-28T10:47:04.506Z,4.06
2023-02-28T10:48:04.488Z,4.08
2023-02-28T10:49:04.485Z,4.10
2023-02-28T10:50:04.466Z,4.10
2023-02-28T10:51:04.483Z,4.23
2023-02-28T10:52:04.464Z,4.23
2023-02-28T10:53:06.029Z,4.35
2023-02-28T10:54:04.455Z,4.39
2023-02-28T10:55:04.425Z,4.49
2023-02-28T10:56:04.432Z,4.53
2023-02-28T10:57:04.391Z,4.63
2023-02-28T10:58:04.382Z,4.71
2023-02-28T10:59:04.377Z,4.71
2023-02-28T11:00:04.356Z,4.74
2023-02-28T11:01:04.397Z,4.77
2023-02-28T11:02:06.192Z,4.82
2023-02-28T11:03:04.328Z,4.93
2023-02-28T11:04:04.312Z,4.98
2023-02-28T11:05:04.392Z,4.94
2023-02-28T11:06:04.311Z,5.03
2023-02-28T11:07:04.289Z,5.07
2023-02-28T11:08:04.336Z,5.12
2023-02-28T11:09:04.268Z,5.15
2023-02-28T11:10:04.242Z,5.19
2023-02-28T11:11:04.261Z,5.27
2023-02-28T11:12:04.245Z,5.33
2023-02-28T11:13:04.224Z,5.43
2023-02-28T11:14:04.229Z,5.43
2023-02-28T11:15:04.196Z,5.51
2023-02-28T11:16:04.218Z,5.62
2023-02-28T11:17:04.175Z,5.58
2023-02-28T11:18:04.161Z,5.65
2023-02-28T11:19:04.176Z,5.75
2023-02-28T11:20:04.181Z,5.73
2023-02-28T11:21:04.135Z,5.88
2023-02-28T11:22:04.119Z,5.93
2023-02-28T11:23:04.117Z,6.00
2023-02-28T11:24:04.134Z,6.02
2023-02-28T11:25:04.119Z,6.21
2023-02-28T11:26:04.070Z,6.24
2023-02-28T11:27:04.071Z,6.35
2023-02-28T11:28:04.045Z,6.32
2023-02-28T11:29:04.049Z,6.38
2023-02-28T11:30:04.056Z,6.46
2023-02-28T11:31:04.093Z,6.50
2023-02-28T11:32:04.055Z,6.57
2023-02-28T11:33:04.018Z,6.68
2023-02-28T11:34:03.986Z,6.75
2023-02-28T11:35:04.000Z,6.74
2023-02-28T11:36:04.042Z,6.82
2023-02-28T11:37:03.968Z,6.85
2023-02-28T11:38:03.945Z,6.92
2023-02-28T11:39:03.935Z,7.01
2023-02-28T11:40:03.956Z,7.04
2023-02-28T11:41:03.915Z,7.03
2023-02-28T11:42:03.903Z,7.18
2023-02-28T11:43:03.888Z,7.22
2023-02-28T11:44:03.869Z,7.42
2023-02-28T11:45:03.889Z,7.52
2023-02-28T11:46:03.858Z,7.66
2023-02-28T11:47:03.844Z,7.86
2023-02-28T11:48:03.834Z,7.84
2023-02-28T11:49:03.822Z,8.04
2023-02-28T11:50:03.828Z,8.04
2023-02-28T11:51:03.813Z,8.16
2023-02-28T11:52:03.781Z,8.21
2023-02-28T11:53:03.797Z,8.28
2023-02-28T11:54:03.767Z,8.28
2023-02-28T11:55:03.782Z,8.34
2023-02-28T11:56:03.821Z,8.32
2023-02-28T11:57:03.740Z,8.28
2023-02-28T11:58:03.723Z,8.37
2023-02-28T11:59:03.747Z,8.52
2023-02-28T12:00:03.704Z,8.39
2023-02-28T12:01:03.699Z,8.56
2023-02-28T12:02:03.695Z,8.60
2023-02-28T12:03:03.694Z,8.62
2023-02-28T12:04:03.663Z,8.65
2023-02-28T12:05:03.675Z,8.80
2023-02-28T12:06:03.642Z,8.77
2023-02-28T12:07:03.640Z,8.77
2023-02-28T12:08:03.631Z,8.88
2023-02-28T12:09:03.613Z,8.88
2023-02-28T12:10:03.622Z,8.83
2023-02-28T12:11:03.607Z,8.90
2023-02-28T12:12:03.624Z,8.92
2023-02-28T12:13:03.568Z,8.95
2023-02-28T12:14:03.554Z,9.04
2023-02-28T12:15:03.544Z,9.09
2023-02-28T12:16:03.564Z,9.15
2023-02-28T12:17:03.542Z,9.22
2023-02-28T12:18:03.540Z,9.18
2023-02-28T12:19:03.503Z,9.32
2023-02-28T12:20:03.492Z,9.33
2023-02-28T12:21:03.504Z,9.29
2023-02-28T12:22:03.499Z,9.33
2023-02-28T12:23:03.497Z,9.37
2023-02-28T12:24:03.453Z,9.47
2023-02-28T12:25:03.442Z,9.48
2023-02-28T12:26:03.422Z,9.54
2023-02-28T12:27:03.423Z,9.63
2023-02-28T12:28:03.457Z,9.73
2023-02-28T12:29:03.400Z,9.83
2023-02-28T12:30:03.382Z,9.94
2023-02-28T12:31:03.398Z,10.08
2023-02-28T12:32:03.480Z,10.08
2023-02-28T12:33:03.381Z,10.20
2023-02-28T12:34:03.385Z,10.26
2023-02-28T12:35:03.332Z,10.30
2023-02-28T12:36:03.380Z,10.43
2023-02-28T12:37:03.304Z,10.54
2023-02-28T12:38:03.292Z,10.54
2023-02-28T12:39:03.308Z,10.61
2023-02-28T12:40:03.286Z,10.57
2023-02-28T12:41:03.269Z,10.70
2023-02-28T12:42:03.248Z,10.70
2023-02-28T12:43:03.270Z,10.78
2023-02-28T12:44:03.241Z,10.90
2023-02-28T12:45:03.223Z,10.85
2023-02-28T12:46:03.334Z,10.93
2023-02-28T12:47:03.199Z,11.03
2023-02-28T12:48:03.207Z,11.13
2023-02-28T12:49:03.177Z,11.25
2023-02-28T12:50:03.161Z,11.38
2023-02-28T12:51:03.579Z,11.48
2023-02-28T12:52:03.178Z,11.59
2023-02-28T12:53:03.129Z,11.61
2023-02-28T12:54:03.112Z,11.76
2023-02-28T12:55:03.104Z,11.79
2023-02-28T12:56:03.092Z,11.85
2023-02-28T12:57:03.082Z,11.85
2023-02-28T12:58:03.092Z,11.93
2023-02-28T12:59:03.090Z,12.13
2023-02-28T13:00:03.084Z,12.41
2023-02-28T13:01:03.060Z,12.47
2023-02-28T13:02:03.072Z,12.59
2023-02-28T13:03:03.068Z,12.73
2023-02-28T13:04:03.034Z,12.69
2023-02-28T13:05:03.002Z,12.80
2023-02-28T13:06:02.983Z,12.88
2023-02-28T13:07:02.974Z,12.84
2023-02-28T13:08:02.958Z,13.02
2023-02-28T13:09:02.988Z,12.95
2023-02-28T13:10:02.939Z,13.02
2023-02-28T13:11:07.481Z,13.02
2023-02-28T13:12:02.918Z,13.13
2023-02-28T13:13:02.908Z,13.13
2023-02-28T13:14:02.924Z,13.30
2023-02-28T13:15:02.888Z,13.38
2023-02-28T13:16:02.901Z,13.57
2023-02-28T13:17:02.996Z,13.76